Terminal Aerodrome Forecast
Issued by NWS Lake Charles, LA

Home | Current Version | Previous Version | Text Only | Print | Product List | Glossary On
Versions: 1 2 3 4 5 6 7 8 9 10 11 12 13 14 15
000
FTUS44 KLCH 282320
TAFAEX
TAF
KAEX 282320Z 2900/2924 15005KT P6SM SKC
      TEMPO 2910/2914 3SM BR
     FM291400 14007KT P6SM SCT250
     FM291800 19012G18KT P6SM SCT250=

USA.gov is the U.S. government's official web portal to all federal, state and local government web resources and services.